createdAt,value
2018-06-27T00:00:14.944Z,70.10
2018-06-27T00:02:45.211Z,70.10
2018-06-27T00:05:15.643Z,70.50
2018-06-27T00:07:46.099Z,70.70
2018-06-27T00:10:16.434Z,70.40
2018-06-27T00:12:46.842Z,69.90
2018-06-27T00:15:17.074Z,69.60
2018-06-27T00:17:47.585Z,69.50
2018-06-27T00:20:18.087Z,69.70
2018-06-27T00:22:48.781Z,69.80
2018-06-27T00:25:19.513Z,69.50
2018-06-27T00:27:50.134Z,69.20
2018-06-27T00:30:20.795Z,69.50
2018-06-27T00:32:51.065Z,69.60
2018-06-27T00:35:21.991Z,69.60
2018-06-27T00:37:52.317Z,69.60
2018-06-27T00:40:22.643Z,70.10
2018-06-27T00:42:52.971Z,70.40
2018-06-27T00:45:23.339Z,70.80
2018-06-27T00:47:53.665Z,70.80
2018-06-27T00:50:24.148Z,70.50
2018-06-27T00:52:54.699Z,70.10
2018-06-27T00:55:25.119Z,69.90
2018-06-27T00:57:55.846Z,69.80
2018-06-27T01:00:26.549Z,69.70
2018-06-27T01:02:56.911Z,69.40
2018-06-27T01:05:28.068Z,69.30
2018-06-27T01:07:58.502Z,69.30
2018-06-27T01:10:29.138Z,69.40
2018-06-27T01:12:59.426Z,69.00
2018-06-27T01:15:30.099Z,69.00
2018-06-27T01:18:00.703Z,68.90
2018-06-27T01:20:31.367Z,68.70
2018-06-27T01:23:01.855Z,68.20
2018-06-27T01:25:32.791Z,67.90
2018-06-27T01:28:03.168Z,67.80
2018-06-27T01:30:34.008Z,68.10
2018-06-27T01:33:04.326Z,68.10
2018-06-27T01:35:34.772Z,67.90
2018-06-27T01:38:05.383Z,67.80
2018-06-27T01:40:35.996Z,68.10
2018-06-27T01:43:06.773Z,68.10
2018-06-27T01:45:37.427Z,68.70
2018-06-27T01:48:08.249Z,67.90
2018-06-27T01:50:38.691Z,68.10
2018-06-27T01:53:09.179Z,68.00
2018-06-27T01:55:39.476Z,68.20
2018-06-27T01:58:09.753Z,68.40
2018-06-27T02:00:40.099Z,68.60
2018-06-27T02:03:10.342Z,68.60
2018-06-27T02:05:40.730Z,68.80
2018-06-27T02:08:10.992Z,68.60
2018-06-27T02:10:41.310Z,68.50
2018-06-27T02:13:11.731Z,68.50
2018-06-27T02:15:42.043Z,68.50
2018-06-27T02:18:12.338Z,68.40
2018-06-27T02:20:42.618Z,68.30
2018-06-27T02:23:13.610Z,68.30
2018-06-27T02:25:43.954Z,68.30
2018-06-27T02:28:14.403Z,68.30
2018-06-27T02:30:44.668Z,68.20
2018-06-27T02:33:20.348Z,68.60
2018-06-27T02:35:50.705Z,68.90
2018-06-27T02:38:20.920Z,68.90
2018-06-27T02:40:51.204Z,68.90
2018-06-27T02:43:21.667Z,68.90
2018-06-27T02:45:52.035Z,68.70
2018-06-27T02:48:22.304Z,68.30
2018-06-27T02:50:52.561Z,68.60
2018-06-27T02:53:22.782Z,67.70
2018-06-27T02:55:53.064Z,67.90
2018-06-27T02:58:23.315Z,67.80
2018-06-27T03:00:53.643Z,67.80
2018-06-27T03:03:24.015Z,67.60
2018-06-27T03:05:54.467Z,67.40
2018-06-27T03:08:24.974Z,67.20
2018-06-27T03:10:55.490Z,67.00
2018-06-27T03:13:25.864Z,67.00
2018-06-27T03:15:59.073Z,66.80
2018-06-27T03:18:29.842Z,66.80
2018-06-27T03:21:00.283Z,66.70
2018-06-27T03:23:31.438Z,67.10
2018-06-27T03:26:01.859Z,67.40
2018-06-27T03:28:32.408Z,67.60
2018-06-27T03:31:02.934Z,68.30
2018-06-27T03:33:33.870Z,67.40
2018-06-27T03:36:04.151Z,67.10
2018-06-27T03:38:34.563Z,67.00
2018-06-27T03:41:04.915Z,66.80
2018-06-27T03:43:35.262Z,67.40
2018-06-27T03:46:05.543Z,66.60
2018-06-27T03:48:36.166Z,66.70
2018-06-27T03:51:12.358Z,67.00
2018-06-27T03:53:48.211Z,67.30
2018-06-27T03:56:19.414Z,67.30
2018-06-27T03:58:49.687Z,67.30
2018-06-27T04:01:19.923Z,67.40
2018-06-27T04:03:50.323Z,67.40
2018-06-27T04:06:20.623Z,67.40
2018-06-27T04:08:50.900Z,67.50
2018-06-27T04:11:21.168Z,67.50
2018-06-27T04:13:51.378Z,67.50
2018-06-27T04:16:21.630Z,67.70
2018-06-27T04:18:51.855Z,67.80
2018-06-27T04:21:22.095Z,68.00
2018-06-27T04:23:52.758Z,68.20
2018-06-27T04:26:23.026Z,68.30
2018-06-27T04:28:53.519Z,68.30
2018-06-27T04:31:23.809Z,68.40
2018-06-27T04:33:54.094Z,68.60
2018-06-27T04:36:24.482Z,68.80
2018-06-27T04:38:54.760Z,69.40
2018-06-27T04:41:24.977Z,69.20
2018-06-27T04:43:55.213Z,69.10
2018-06-27T04:46:25.844Z,69.20
2018-06-27T04:48:56.865Z,69.40
2018-06-27T04:51:27.843Z,69.20
2018-06-27T04:53:58.194Z,69.60
2018-06-27T04:56:28.819Z,69.80
2018-06-27T04:58:59.249Z,70.00
2018-06-27T05:01:29.737Z,70.30
2018-06-27T05:04:00.026Z,70.80
2018-06-27T05:06:30.305Z,70.90
2018-06-27T05:09:00.560Z,70.90
2018-06-27T05:11:30.913Z,71.10
2018-06-27T05:14:01.146Z,71.00
2018-06-27T05:16:31.402Z,71.00
2018-06-27T05:19:01.999Z,71.20
2018-06-27T05:21:32.802Z,71.20
2018-06-27T05:24:03.049Z,71.00
2018-06-27T05:26:33.270Z,71.10
2018-06-27T05:29:03.629Z,70.50
2018-06-27T05:31:34.353Z,70.70
2018-06-27T05:34:04.610Z,71.00
2018-06-27T05:36:34.863Z,70.60
2018-06-27T05:39:08.591Z,70.00
2018-06-27T05:41:38.810Z,69.50
2018-06-27T05:44:09.155Z,68.00
2018-06-27T05:46:39.378Z,67.80
2018-06-27T05:49:09.666Z,67.30
2018-06-27T05:51:39.991Z,67.20
2018-06-27T05:54:10.282Z,67.40
2018-06-27T05:56:41.014Z,67.00
2018-06-27T05:59:11.277Z,67.20
2018-06-27T06:01:41.818Z,67.00
2018-06-27T06:04:12.076Z,67.40
2018-06-27T06:06:42.498Z,65.90
2018-06-27T06:09:13.390Z,65.80
2018-06-27T06:11:43.672Z,65.40
2018-06-27T06:14:13.917Z,63.60
2018-06-27T06:16:44.195Z,63.10
2018-06-27T06:19:14.966Z,62.40
2018-06-27T06:21:45.239Z,62.70
2018-06-27T06:24:15.473Z,62.50
2018-06-27T06:26:45.755Z,62.00
2018-06-27T06:29:15.998Z,61.40
2018-06-27T06:31:46.251Z,59.90
2018-06-27T06:34:16.611Z,57.20
2018-06-27T06:36:46.847Z,56.70
2018-06-27T06:39:17.134Z,56.90
2018-06-27T06:41:50.704Z,56.90
2018-06-27T06:44:20.962Z,56.70
2018-06-27T06:46:51.209Z,56.40
2018-06-27T06:49:21.452Z,55.80
2018-06-27T06:51:51.679Z,55.00
2018-06-27T06:54:22.024Z,56.00
2018-06-27T06:56:52.251Z,56.70
2018-06-27T06:59:22.992Z,57.10
2018-06-27T07:01:53.248Z,56.50
2018-06-27T07:04:23.517Z,56.00
2018-06-27T07:06:53.779Z,56.30
2018-06-27T07:09:24.981Z,56.40
2018-06-27T07:11:56.718Z,55.40
2018-06-27T07:14:27.101Z,54.40
2018-06-27T07:16:57.569Z,54.80
2018-06-27T07:19:28.127Z,54.00
2018-06-27T07:21:58.839Z,52.00
2018-06-27T07:24:29.166Z,50.30
2018-06-27T07:26:59.779Z,51.00
2018-06-27T07:29:30.166Z,49.20
2018-06-27T07:32:00.390Z,49.20
2018-06-27T07:34:30.680Z,49.70
2018-06-27T07:37:00.885Z,48.40
2018-06-27T07:39:31.432Z,47.70
2018-06-27T07:42:01.654Z,47.20
2018-06-27T07:44:32.010Z,46.40
2018-06-27T07:47:02.243Z,46.20
2018-06-27T07:49:32.920Z,45.70
2018-06-27T07:52:03.910Z,45.70
2018-06-27T07:54:38.294Z,45.60
2018-06-27T07:57:10.192Z,45.30
2018-06-27T07:59:40.970Z,44.70
2018-06-27T08:02:11.219Z,44.30
2018-06-27T08:04:41.502Z,43.50
2018-06-27T08:07:11.702Z,45.00
2018-06-27T08:09:41.948Z,44.00
2018-06-27T08:12:12.267Z,43.70
2018-06-27T08:14:42.564Z,45.30
2018-06-27T08:17:12.774Z,45.80
2018-06-27T08:19:43.056Z,44.50
2018-06-27T08:22:13.307Z,44.30
2018-06-27T08:24:43.655Z,43.90
2018-06-27T08:27:13.871Z,44.70
2018-06-27T08:29:44.488Z,44.40
2018-06-27T08:32:14.720Z,43.10
2018-06-27T08:34:45.088Z,43.70
2018-06-27T08:37:15.291Z,42.90
2018-06-27T08:39:45.597Z,41.90
2018-06-27T08:42:15.871Z,43.00
2018-06-27T08:44:46.066Z,43.20
2018-06-27T08:47:16.327Z,43.30
2018-06-27T08:52:51.155Z,43.10
2018-06-27T08:55:21.378Z,45.10
2018-06-27T08:57:51.581Z,43.90
2018-06-27T09:00:21.803Z,44.50
2018-06-27T09:02:51.990Z,43.10
2018-06-27T09:05:22.322Z,42.70
2018-06-27T09:07:52.554Z,41.60
2018-06-27T09:10:22.761Z,42.00
2018-06-27T09:12:52.997Z,42.20
2018-06-27T09:15:23.251Z,42.10
2018-06-27T09:17:53.543Z,42.20
2018-06-27T09:20:23.851Z,42.20
2018-06-27T09:22:54.162Z,42.40
2018-06-27T09:25:24.385Z,43.90
2018-06-27T09:27:54.676Z,42.10
2018-06-27T09:30:24.959Z,42.90
2018-06-27T09:32:55.231Z,42.30
2018-06-27T09:35:25.518Z,42.50
2018-06-27T09:37:55.779Z,42.50
2018-06-27T09:40:26.060Z,41.50
2018-06-27T09:43:04.771Z,42.10
2018-06-27T09:45:35.257Z,42.00
2018-06-27T09:48:05.740Z,41.30
2018-06-27T09:50:36.173Z,41.20
2018-06-27T09:53:06.850Z,42.30
2018-06-27T09:55:37.064Z,42.60
2018-06-27T09:58:07.364Z,41.20
2018-06-27T10:00:38.558Z,41.80
2018-06-27T10:03:10.447Z,41.10
2018-06-27T10:05:40.871Z,39.80
2018-06-27T10:08:11.128Z,39.40
2018-06-27T10:10:42.175Z,37.90
2018-06-27T10:13:12.417Z,36.70
2018-06-27T10:15:42.618Z,35.30
2018-06-27T10:18:12.823Z,36.10
2018-06-27T10:20:43.285Z,35.30
2018-06-27T10:23:13.482Z,36.20
2018-06-27T10:25:43.702Z,37.80
2018-06-27T10:28:13.886Z,38.40
2018-06-27T10:30:44.270Z,37.20
2018-06-27T10:33:15.775Z,37.50
2018-06-27T10:35:46.205Z,37.90
2018-06-27T10:38:16.340Z,36.50
2018-06-27T10:40:46.590Z,36.10
2018-06-27T10:43:16.794Z,35.10
2018-06-27T10:45:46.987Z,33.40
2018-06-27T10:48:17.184Z,33.40
2018-06-27T10:50:47.426Z,32.60
2018-06-27T10:53:23.698Z,32.90
2018-06-27T10:56:00.315Z,32.40
2018-06-27T10:58:30.777Z,31.90
2018-06-27T11:01:01.498Z,32.60
2018-06-27T11:03:31.870Z,33.00
2018-06-27T11:06:02.479Z,33.80
2018-06-27T11:08:32.935Z,34.00
2018-06-27T11:11:03.183Z,31.20
2018-06-27T11:13:37.133Z,30.10
2018-06-27T11:16:07.368Z,29.70
2018-06-27T11:18:37.574Z,30.00
2018-06-27T11:21:07.837Z,31.60
2018-06-27T11:23:39.088Z,31.20
2018-06-27T11:26:09.648Z,31.40
2018-06-27T11:28:39.851Z,27.20
2018-06-27T11:31:10.118Z,28.00
2018-06-27T11:33:41.298Z,27.10
2018-06-27T11:36:11.618Z,27.20
2018-06-27T11:38:42.820Z,26.50
2018-06-27T11:41:13.354Z,27.00
2018-06-27T11:46:14.018Z,27.60
2018-06-27T11:48:44.427Z,27.80
2018-06-27T11:51:15.113Z,27.70
2018-06-27T11:53:45.300Z,28.00
2018-06-27T11:56:15.913Z,27.10
2018-06-27T11:58:46.332Z,26.40
2018-06-27T12:01:16.522Z,26.80
2018-06-27T12:03:47.050Z,26.00
2018-06-27T12:06:17.411Z,25.20
2018-06-27T12:08:48.023Z,23.80
2018-06-27T12:13:50.136Z,24.50
2018-06-27T12:16:20.799Z,25.30
2018-06-27T12:18:51.378Z,24.00
2018-06-27T12:21:21.799Z,22.90
2018-06-27T12:23:52.434Z,22.80
2018-06-27T12:26:23.067Z,22.70
2018-06-27T12:28:55.054Z,21.90
2018-06-27T12:31:27.028Z,20.20
2018-06-27T12:33:57.769Z,20.70
2018-06-27T12:36:28.196Z,20.40
2018-06-27T12:38:58.570Z,20.90
2018-06-27T12:41:30.035Z,20.90
2018-06-27T12:44:00.270Z,21.00
2018-06-27T12:46:30.667Z,21.10
2018-06-27T12:49:00.950Z,22.60
2018-06-27T12:51:31.307Z,19.70
2018-06-27T12:54:03.965Z,21.70
2018-06-27T12:56:34.232Z,21.80
2018-06-27T12:59:05.076Z,21.30
2018-06-27T13:01:35.822Z,20.70
2018-06-27T13:04:06.335Z,20.60
2018-06-27T13:06:36.838Z,21.30
2018-06-27T13:09:11.578Z,20.40
2018-06-27T13:11:42.835Z,20.00
2018-06-27T13:14:14.276Z,21.60
2018-06-27T13:16:46.304Z,21.70
2018-06-27T13:19:18.183Z,22.20
2018-06-27T13:21:52.550Z,20.90
2018-06-27T13:24:22.998Z,20.00
2018-06-27T13:26:53.559Z,20.50
2018-06-27T13:29:23.831Z,19.00
2018-06-27T13:31:54.084Z,19.80
2018-06-27T13:34:24.365Z,20.10
2018-06-27T13:36:54.599Z,18.90
2018-06-27T13:39:24.912Z,19.30
2018-06-27T13:41:55.142Z,18.40
2018-06-27T13:44:25.746Z,19.50
2018-06-27T13:46:55.958Z,17.70
2018-06-27T13:49:27.339Z,16.60
2018-06-27T13:51:57.583Z,15.60
2018-06-27T13:54:27.874Z,16.70
2018-06-27T13:56:58.199Z,16.30
2018-06-27T13:59:28.830Z,16.30
2018-06-27T14:01:59.258Z,15.90
2018-06-27T14:04:29.725Z,16.20
2018-06-27T14:06:59.963Z,15.70
2018-06-27T14:09:30.195Z,15.90
2018-06-27T14:12:00.442Z,15.90
2018-06-27T14:14:30.646Z,15.50
2018-06-27T14:17:00.959Z,15.40
2018-06-27T14:19:31.851Z,15.10
2018-06-27T14:22:02.486Z,15.20
2018-06-27T14:24:32.839Z,16.30
2018-06-27T14:27:03.393Z,15.70
2018-06-27T14:29:34.219Z,16.70
2018-06-27T14:32:05.557Z,16.90
2018-06-27T14:34:36.699Z,17.60
2018-06-27T14:37:07.885Z,16.60
2018-06-27T14:39:39.130Z,16.50
2018-06-27T14:42:09.395Z,16.50
2018-06-27T14:44:41.570Z,16.00
2018-06-27T14:47:13.376Z,17.00
2018-06-27T14:49:45.593Z,17.10
2018-06-27T14:52:17.150Z,17.10
2018-06-27T14:54:49.467Z,17.60
2018-06-27T14:57:20.388Z,16.70
2018-06-27T14:59:50.653Z,17.90
2018-06-27T15:02:21.830Z,17.30
2018-06-27T15:04:52.093Z,18.40
2018-06-27T15:07:22.426Z,19.10
2018-06-27T15:09:52.754Z,18.30
2018-06-27T15:12:23.207Z,18.60
2018-06-27T15:14:53.923Z,20.20
2018-06-27T15:17:25.387Z,20.50
2018-06-27T15:19:55.978Z,21.80
2018-06-27T15:22:26.513Z,21.50
2018-06-27T15:24:57.255Z,21.60
2018-06-27T15:27:27.927Z,22.50
2018-06-27T15:29:58.973Z,23.30
2018-06-27T15:32:29.226Z,23.80
2018-06-27T15:34:59.875Z,24.50
2018-06-27T15:37:30.634Z,25.20
2018-06-27T15:40:01.632Z,26.90
2018-06-27T15:42:31.891Z,27.50
2018-06-27T15:45:02.761Z,27.20
2018-06-27T15:47:33.095Z,27.20
2018-06-27T15:50:03.483Z,28.10
2018-06-27T15:52:34.301Z,28.20
2018-06-27T15:55:04.551Z,28.00
2018-06-27T15:57:35.061Z,28.70
2018-06-27T16:00:05.639Z,28.60
2018-06-27T16:02:36.018Z,27.30
2018-06-27T16:05:06.764Z,28.10
2018-06-27T16:07:39.286Z,28.50
2018-06-27T16:10:11.320Z,28.60
2018-06-27T16:12:43.487Z,28.70
2018-06-27T16:15:15.362Z,28.40
2018-06-27T16:17:47.969Z,28.70
2018-06-27T16:20:20.942Z,28.10
2018-06-27T16:22:54.119Z,27.20
2018-06-27T16:25:26.713Z,26.70
2018-06-27T16:27:58.788Z,26.60
2018-06-27T16:30:33.459Z,25.90
2018-06-27T16:33:06.085Z,25.90
2018-06-27T16:35:40.071Z,26.50
2018-06-27T16:38:12.712Z,27.20
2018-06-27T16:40:54.691Z,28.00
2018-06-27T16:43:27.694Z,26.40
2018-06-27T16:46:01.538Z,26.50
2018-06-27T16:48:36.164Z,27.00
2018-06-27T16:51:09.794Z,27.50
2018-06-27T16:53:44.983Z,28.00
2018-06-27T16:56:17.597Z,28.60
2018-06-27T16:58:51.566Z,28.40
2018-06-27T17:01:23.691Z,28.50
2018-06-27T17:03:55.850Z,28.90
2018-06-27T17:06:27.793Z,29.10
2018-06-27T17:09:00.181Z,30.00
2018-06-27T17:11:32.719Z,29.70
2018-06-27T17:14:05.333Z,30.30
2018-06-27T17:16:38.273Z,30.20
2018-06-27T17:19:10.426Z,30.20
2018-06-27T17:21:42.404Z,30.20
2018-06-27T17:24:14.444Z,30.80
2018-06-27T17:26:46.328Z,31.00
2018-06-27T17:29:16.943Z,31.10
2018-06-27T17:31:47.276Z,30.80
2018-06-27T17:34:17.547Z,30.90
2018-06-27T17:36:48.146Z,31.40
2018-06-27T17:39:18.471Z,32.10
2018-06-27T17:41:49.035Z,31.60
2018-06-27T17:44:20.543Z,31.30
2018-06-27T17:46:51.242Z,32.00
2018-06-27T17:49:23.491Z,32.10
2018-06-27T17:51:58.216Z,31.70
2018-06-27T17:54:30.504Z,31.70
2018-06-27T17:57:02.603Z,32.00
2018-06-27T17:59:33.570Z,31.50
2018-06-27T18:02:05.181Z,32.20
2018-06-27T18:04:37.219Z,31.70
2018-06-27T18:07:07.975Z,31.50
2018-06-27T18:13:13.888Z,31.80
2018-06-27T18:15:49.140Z,31.80
2018-06-27T18:18:30.873Z,32.80
2018-06-27T18:21:02.644Z,33.10
2018-06-27T18:23:33.546Z,32.70
2018-06-27T18:26:03.838Z,32.40
2018-06-27T18:28:35.966Z,32.20
2018-06-27T18:31:07.407Z,33.00
2018-06-27T18:33:37.755Z,33.20
2018-06-27T18:36:09.895Z,33.30
2018-06-27T18:38:40.404Z,34.00
2018-06-27T18:41:10.660Z,33.90
2018-06-27T18:43:42.100Z,34.00
2018-06-27T18:46:14.063Z,34.20
2018-06-27T18:48:45.604Z,34.60
2018-06-27T18:51:17.059Z,34.70
2018-06-27T18:56:29.515Z,34.60
2018-06-27T18:59:01.957Z,34.70
2018-06-27T19:01:34.604Z,35.20
2018-06-27T19:04:06.611Z,35.20
2018-06-27T19:06:41.689Z,35.30
2018-06-27T19:09:13.275Z,35.40
2018-06-27T19:11:44.260Z,35.30
2018-06-27T19:14:15.161Z,35.80
2018-06-27T19:16:54.052Z,35.90
2018-06-27T19:19:26.005Z,36.00
2018-06-27T19:22:02.393Z,35.90
2018-06-27T19:24:34.087Z,36.00
2018-06-27T19:27:06.602Z,36.00
2018-06-27T19:29:37.028Z,36.40
2018-06-27T19:32:13.575Z,36.30
2018-06-27T19:34:44.067Z,36.60
2018-06-27T19:37:14.531Z,36.70
2018-06-27T19:39:45.406Z,36.60
2018-06-27T19:42:15.699Z,36.80
2018-06-27T19:44:46.265Z,36.90
2018-06-27T19:47:16.750Z,37.10
2018-06-27T19:49:47.057Z,37.30
2018-06-27T19:52:17.358Z,37.40
2018-06-27T19:54:47.698Z,38.10
2018-06-27T19:57:20.112Z,38.60
2018-06-27T19:59:50.395Z,38.60
2018-06-27T20:02:21.047Z,38.70
2018-06-27T20:04:53.138Z,38.40
2018-06-27T20:07:25.299Z,38.10
2018-06-27T20:09:56.404Z,38.50
2018-06-27T20:12:27.193Z,39.20
2018-06-27T20:14:57.609Z,39.20
2018-06-27T20:17:28.402Z,39.60
2018-06-27T20:19:58.663Z,40.10
2018-06-27T20:22:28.911Z,40.60
2018-06-27T20:24:59.244Z,40.70
2018-06-27T20:27:29.939Z,41.40
2018-06-27T20:30:00.173Z,42.70
2018-06-27T20:32:30.670Z,44.60
2018-06-27T20:35:00.883Z,44.40
2018-06-27T20:37:31.182Z,44.90
2018-06-27T20:40:03.490Z,45.30
2018-06-27T20:42:34.211Z,46.30
2018-06-27T20:45:05.562Z,46.70
2018-06-27T20:47:39.404Z,46.80
2018-06-27T20:50:10.643Z,46.80
2018-06-27T20:52:41.020Z,47.20
2018-06-27T20:55:11.275Z,47.60
2018-06-27T20:57:43.370Z,48.20
2018-06-27T21:00:15.339Z,48.30
2018-06-27T21:02:46.331Z,48.60
2018-06-27T21:05:17.550Z,48.90
2018-06-27T21:07:48.965Z,49.10
2018-06-27T21:10:19.449Z,49.40
2018-06-27T21:12:52.392Z,49.90
2018-06-27T21:15:25.633Z,50.00
2018-06-27T21:17:57.024Z,50.50
2018-06-27T21:20:28.075Z,50.50
2018-06-27T21:23:02.262Z,50.80
2018-06-27T21:25:33.591Z,50.60
2018-06-27T21:28:04.774Z,50.60
2018-06-27T21:30:36.336Z,50.70
2018-06-27T21:33:08.497Z,50.90
2018-06-27T21:35:40.189Z,51.30
2018-06-27T21:38:11.901Z,51.50
2018-06-27T21:40:42.796Z,51.20
2018-06-27T21:43:13.754Z,51.10
2018-06-27T21:45:44.273Z,51.50
2018-06-27T21:48:15.904Z,51.80
2018-06-27T21:50:50.396Z,52.00
2018-06-27T21:53:21.145Z,52.10
2018-06-27T21:55:52.510Z,52.50
2018-06-27T21:58:23.468Z,52.80
2018-06-27T22:00:54.688Z,53.10
2018-06-27T22:03:25.777Z,53.00
2018-06-27T22:05:57.813Z,53.10
2018-06-27T22:08:28.887Z,53.40
2018-06-27T22:10:59.218Z,53.10
2018-06-27T22:13:30.281Z,53.40
2018-06-27T22:16:00.906Z,53.40
2018-06-27T22:18:35.847Z,53.60
2018-06-27T22:23:53.279Z,54.30
2018-06-27T22:26:23.496Z,54.10
2018-06-27T22:28:54.240Z,54.30
2018-06-27T22:31:24.490Z,54.10
2018-06-27T22:33:54.919Z,54.20
2018-06-27T22:36:25.879Z,54.20
2018-06-27T22:39:02.094Z,54.10
2018-06-27T22:41:35.069Z,54.20
2018-06-27T22:44:05.369Z,54.70
2018-06-27T22:46:36.084Z,55.10
2018-06-27T22:49:06.426Z,55.30
2018-06-27T22:54:08.083Z,55.60
2018-06-27T22:56:38.306Z,55.30
2018-06-27T22:59:08.535Z,55.30
2018-06-27T23:01:38.850Z,55.00
2018-06-27T23:04:09.058Z,55.30
2018-06-27T23:06:39.344Z,55.40
2018-06-27T23:09:11.464Z,55.40
2018-06-27T23:11:41.707Z,55.30
2018-06-27T23:14:11.919Z,55.50
2018-06-27T23:16:42.195Z,55.80
2018-06-27T23:19:12.399Z,56.00
2018-06-27T23:21:42.588Z,56.20
2018-06-27T23:24:12.769Z,56.40
2018-06-27T23:26:42.982Z,56.40
2018-06-27T23:29:13.178Z,56.80
2018-06-27T23:31:45.018Z,56.80
2018-06-27T23:34:15.233Z,56.80
2018-06-27T23:36:45.583Z,56.80
2018-06-27T23:39:16.103Z,57.00
2018-06-27T23:41:46.416Z,56.40
2018-06-27T23:44:16.574Z,57.20
2018-06-27T23:46:46.780Z,56.90
2018-06-27T23:49:16.959Z,57.00
2018-06-27T23:51:48.567Z,57.00
2018-06-27T23:54:18.767Z,57.00
2018-06-27T23:56:50.069Z,57.00
2018-06-27T23:59:20.268Z,57.30
